sensor_id;sensor_type;location;lat;lon;timestamp;P1;durP1;ratioP1;P2;durP2;ratioP2
5831;SDS011;50943;51.448;7.646;2024-01-16T00:00:51;15.63;;;8.47;;
5831;SDS011;50943;51.448;7.646;2024-01-16T00:03:19;20.10;;;8.63;;
5831;SDS011;50943;51.448;7.646;2024-01-16T00:05:45;21.20;;;9.60;;
5831;SDS011;50943;51.448;7.646;2024-01-16T00:08:12;17.47;;;8.60;;
5831;SDS011;50943;51.448;7.646;2024-01-16T00:10:38;22.23;;;11.03;;
5831;SDS011;50943;51.448;7.646;2024-01-16T00:13:05;25.23;;;9.30;;
5831;SDS011;50943;51.448;7.646;2024-01-16T00:15:31;20.23;;;10.20;;
5831;SDS011;50943;51.448;7.646;2024-01-16T00:17:58;21.83;;;11.07;;
5831;SDS011;50943;51.448;7.646;2024-01-16T00:20:26;20.60;;;10.97;;
5831;SDS011;50943;51.448;7.646;2024-01-16T00:22:52;21.60;;;10.07;;
5831;SDS011;50943;51.448;7.646;2024-01-16T00:25:19;24.10;;;10.40;;
5831;SDS011;50943;51.448;7.646;2024-01-16T00:27:46;28.13;;;9.73;;
5831;SDS011;50943;51.448;7.646;2024-01-16T00:30:13;24.10;;;11.03;;
5831;SDS011;50943;51.448;7.646;2024-01-16T00:32:40;18.33;;;8.83;;
5831;SDS011;50943;51.448;7.646;2024-01-16T00:35:06;20.47;;;9.37;;
5831;SDS011;50943;51.448;7.646;2024-01-16T00:37:35;24.53;;;8.83;;
5831;SDS011;50943;51.448;7.646;2024-01-16T00:40:02;19.10;;;9.73;;
5831;SDS011;50943;51.448;7.646;2024-01-16T00:42:29;24.57;;;8.80;;
5831;SDS011;50943;51.448;7.646;2024-01-16T00:44:56;22.30;;;10.00;;
5831;SDS011;50943;51.448;7.646;2024-01-16T00:47:23;19.93;;;9.80;;
5831;SDS011;50943;51.448;7.646;2024-01-16T00:49:49;24.33;;;9.40;;
5831;SDS011;50943;51.448;7.646;2024-01-16T00:52:16;17.40;;;8.77;;
5831;SDS011;50943;51.448;7.646;2024-01-16T00:54:44;22.50;;;9.20;;
5831;SDS011;50943;51.448;7.646;2024-01-16T00:57:10;28.20;;;10.00;;
5831;SDS011;50943;51.448;7.646;2024-01-16T00:59:37;21.67;;;10.00;;
5831;SDS011;50943;51.448;7.646;2024-01-16T01:02:03;21.87;;;8.73;;
5831;SDS011;50943;51.448;7.646;2024-01-16T01:04:32;20.13;;;10.00;;
5831;SDS011;50943;51.448;7.646;2024-01-16T01:06:58;23.00;;;9.07;;
5831;SDS011;50943;51.448;7.646;2024-01-16T01:09:25;22.80;;;10.43;;
5831;SDS011;50943;51.448;7.646;2024-01-16T01:11:53;24.87;;;9.67;;
5831;SDS011;50943;51.448;7.646;2024-01-16T01:14:19;21.37;;;9.90;;
5831;SDS011;50943;51.448;7.646;2024-01-16T01:16:46;20.07;;;8.70;;
5831;SDS011;50943;51.448;7.646;2024-01-16T01:19:13;18.90;;;8.50;;
5831;SDS011;50943;51.448;7.646;2024-01-16T01:21:39;21.73;;;8.40;;
5831;SDS011;50943;51.448;7.646;2024-01-16T01:24:06;23.73;;;10.07;;
5831;SDS011;50943;51.448;7.646;2024-01-16T01:26:32;23.13;;;9.00;;
5831;SDS011;50943;51.448;7.646;2024-01-16T01:29:00;20.50;;;8.30;;
5831;SDS011;50943;51.448;7.646;2024-01-16T01:31:27;18.97;;;8.67;;
5831;SDS011;50943;51.448;7.646;2024-01-16T01:33:53;22.83;;;10.50;;
5831;SDS011;50943;51.448;7.646;2024-01-16T01:36:20;22.30;;;8.80;;
5831;SDS011;50943;51.448;7.646;2024-01-16T01:38:46;20.57;;;8.67;;
5831;SDS011;50943;51.448;7.646;2024-01-16T01:41:13;19.43;;;8.57;;
5831;SDS011;50943;51.448;7.646;2024-01-16T01:43:40;25.60;;;7.83;;
5831;SDS011;50943;51.448;7.646;2024-01-16T01:46:11;20.63;;;9.60;;
5831;SDS011;50943;51.448;7.646;2024-01-16T01:48:40;18.37;;;8.80;;
5831;SDS011;50943;51.448;7.646;2024-01-16T01:51:07;22.13;;;9.00;;
5831;SDS011;50943;51.448;7.646;2024-01-16T01:53:34;19.83;;;8.87;;
5831;SDS011;50943;51.448;7.646;2024-01-16T01:56:01;19.27;;;9.57;;
5831;SDS011;50943;51.448;7.646;2024-01-16T01:58:30;22.97;;;9.00;;
5831;SDS011;50943;51.448;7.646;2024-01-16T02:00:57;18.67;;;10.10;;
5831;SDS011;50943;51.448;7.646;2024-01-16T02:03:25;31.17;;;9.87;;
5831;SDS011;50943;51.448;7.646;2024-01-16T02:05:53;21.67;;;9.90;;
5831;SDS011;50943;51.448;7.646;2024-01-16T02:08:20;20.40;;;8.97;;
5831;SDS011;50943;51.448;7.646;2024-01-16T02:10:46;35.07;;;11.23;;
5831;SDS011;50943;51.448;7.646;2024-01-16T02:13:14;22.00;;;10.10;;
5831;SDS011;50943;51.448;7.646;2024-01-16T02:15:43;22.83;;;9.47;;
5831;SDS011;50943;51.448;7.646;2024-01-16T02:18:10;23.60;;;8.93;;
5831;SDS011;50943;51.448;7.646;2024-01-16T02:20:38;22.13;;;9.97;;
5831;SDS011;50943;51.448;7.646;2024-01-16T02:23:04;18.17;;;9.10;;
5831;SDS011;50943;51.448;7.646;2024-01-16T02:25:33;24.83;;;9.47;;
5831;SDS011;50943;51.448;7.646;2024-01-16T02:28:00;23.07;;;9.27;;
5831;SDS011;50943;51.448;7.646;2024-01-16T02:30:27;24.87;;;9.63;;
5831;SDS011;50943;51.448;7.646;2024-01-16T02:32:53;18.80;;;8.53;;
5831;SDS011;50943;51.448;7.646;2024-01-16T02:35:20;24.80;;;9.67;;
5831;SDS011;50943;51.448;7.646;2024-01-16T02:37:46;24.03;;;9.07;;
5831;SDS011;50943;51.448;7.646;2024-01-16T02:40:13;20.97;;;9.03;;
5831;SDS011;50943;51.448;7.646;2024-01-16T02:42:41;25.90;;;9.60;;
5831;SDS011;50943;51.448;7.646;2024-01-16T02:45:07;22.53;;;9.87;;
5831;SDS011;50943;51.448;7.646;2024-01-16T02:47:34;31.23;;;9.00;;
5831;SDS011;50943;51.448;7.646;2024-01-16T02:50:01;16.00;;;8.33;;
5831;SDS011;50943;51.448;7.646;2024-01-16T02:52:28;21.37;;;8.07;;
5831;SDS011;50943;51.448;7.646;2024-01-16T02:54:55;18.07;;;9.07;;
5831;SDS011;50943;51.448;7.646;2024-01-16T02:57:21;19.00;;;8.20;;
5831;SDS011;50943;51.448;7.646;2024-01-16T02:59:49;23.30;;;8.93;;
5831;SDS011;50943;51.448;7.646;2024-01-16T03:02:15;21.10;;;9.60;;
5831;SDS011;50943;51.448;7.646;2024-01-16T03:04:42;20.57;;;8.97;;
5831;SDS011;50943;51.448;7.646;2024-01-16T03:07:09;22.73;;;8.93;;
5831;SDS011;50943;51.448;7.646;2024-01-16T03:09:35;27.83;;;9.67;;
5831;SDS011;50943;51.448;7.646;2024-01-16T03:12:02;20.93;;;9.57;;
5831;SDS011;50943;51.448;7.646;2024-01-16T03:14:28;24.60;;;8.93;;
5831;SDS011;50943;51.448;7.646;2024-01-16T03:17:00;23.40;;;10.23;;
5831;SDS011;50943;51.448;7.646;2024-01-16T03:19:27;22.50;;;8.80;;
5831;SDS011;50943;51.448;7.646;2024-01-16T03:21:53;20.97;;;9.07;;
5831;SDS011;50943;51.448;7.646;2024-01-16T03:24:20;19.13;;;10.33;;
5831;SDS011;50943;51.448;7.646;2024-01-16T03:26:46;23.83;;;10.23;;
5831;SDS011;50943;51.448;7.646;2024-01-16T03:29:13;26.00;;;10.63;;
5831;SDS011;50943;51.448;7.646;2024-01-16T03:31:40;30.13;;;11.33;;
5831;SDS011;50943;51.448;7.646;2024-01-16T03:34:08;24.93;;;11.20;;
5831;SDS011;50943;51.448;7.646;2024-01-16T03:36:35;33.10;;;11.97;;
5831;SDS011;50943;51.448;7.646;2024-01-16T03:39:02;34.40;;;12.50;;
5831;SDS011;50943;51.448;7.646;2024-01-16T03:41:28;27.20;;;11.87;;
5831;SDS011;50943;51.448;7.646;2024-01-16T03:43:55;25.57;;;10.90;;
5831;SDS011;50943;51.448;7.646;2024-01-16T03:46:22;24.73;;;11.20;;
5831;SDS011;50943;51.448;7.646;2024-01-16T03:48:49;23.60;;;12.07;;
5831;SDS011;50943;51.448;7.646;2024-01-16T03:51:17;30.40;;;11.80;;
5831;SDS011;50943;51.448;7.646;2024-01-16T03:53:44;25.37;;;12.27;;
5831;SDS011;50943;51.448;7.646;2024-01-16T03:56:11;38.87;;;11.80;;
5831;SDS011;50943;51.448;7.646;2024-01-16T03:58:38;36.20;;;12.37;;
5831;SDS011;50943;51.448;7.646;2024-01-16T04:01:06;26.80;;;12.37;;
5831;SDS011;50943;51.448;7.646;2024-01-16T04:03:32;32.43;;;13.10;;
5831;SDS011;50943;51.448;7.646;2024-01-16T04:06:00;24.53;;;11.73;;
5831;SDS011;50943;51.448;7.646;2024-01-16T04:08:27;29.10;;;12.83;;
5831;SDS011;50943;51.448;7.646;2024-01-16T04:10:54;30.63;;;11.53;;
5831;SDS011;50943;51.448;7.646;2024-01-16T04:13:20;28.50;;;12.40;;
5831;SDS011;50943;51.448;7.646;2024-01-16T04:15:47;31.90;;;14.13;;
5831;SDS011;50943;51.448;7.646;2024-01-16T04:18:13;30.50;;;13.10;;
5831;SDS011;50943;51.448;7.646;2024-01-16T04:20:40;33.30;;;12.93;;
5831;SDS011;50943;51.448;7.646;2024-01-16T04:23:06;30.07;;;12.67;;
5831;SDS011;50943;51.448;7.646;2024-01-16T04:25:34;27.57;;;13.70;;
5831;SDS011;50943;51.448;7.646;2024-01-16T04:28:01;27.60;;;12.73;;
5831;SDS011;50943;51.448;7.646;2024-01-16T04:30:27;29.80;;;13.27;;
5831;SDS011;50943;51.448;7.646;2024-01-16T04:32:54;24.87;;;11.93;;
5831;SDS011;50943;51.448;7.646;2024-01-16T04:35:20;26.60;;;13.00;;
5831;SDS011;50943;51.448;7.646;2024-01-16T04:37:47;27.03;;;11.57;;
5831;SDS011;50943;51.448;7.646;2024-01-16T04:40:14;33.90;;;11.50;;
5831;SDS011;50943;51.448;7.646;2024-01-16T04:42:42;23.63;;;11.40;;
5831;SDS011;50943;51.448;7.646;2024-01-16T04:45:09;26.27;;;11.70;;
5831;SDS011;50943;51.448;7.646;2024-01-16T04:47:35;27.40;;;11.40;;
5831;SDS011;50943;51.448;7.646;2024-01-16T04:50:02;24.07;;;10.50;;
5831;SDS011;50943;51.448;7.646;2024-01-16T04:52:29;28.40;;;11.40;;
5831;SDS011;50943;51.448;7.646;2024-01-16T04:54:55;25.17;;;12.03;;
5831;SDS011;50943;51.448;7.646;2024-01-16T04:57:22;28.20;;;12.20;;
5831;SDS011;50943;51.448;7.646;2024-01-16T04:59:49;27.43;;;12.57;;
5831;SDS011;50943;51.448;7.646;2024-01-16T05:02:16;28.00;;;12.47;;
5831;SDS011;50943;51.448;7.646;2024-01-16T05:04:43;28.90;;;12.73;;
5831;SDS011;50943;51.448;7.646;2024-01-16T05:07:10;33.03;;;13.00;;
5831;SDS011;50943;51.448;7.646;2024-01-16T05:09:37;28.93;;;12.70;;
5831;SDS011;50943;51.448;7.646;2024-01-16T05:12:03;28.47;;;13.43;;
5831;SDS011;50943;51.448;7.646;2024-01-16T05:14:30;28.70;;;12.87;;
5831;SDS011;50943;51.448;7.646;2024-01-16T05:16:58;31.37;;;12.03;;
5831;SDS011;50943;51.448;7.646;2024-01-16T05:19:25;24.20;;;11.33;;
5831;SDS011;50943;51.448;7.646;2024-01-16T05:21:51;27.97;;;12.87;;
5831;SDS011;50943;51.448;7.646;2024-01-16T05:24:18;24.77;;;11.13;;
5831;SDS011;50943;51.448;7.646;2024-01-16T05:26:44;30.13;;;12.30;;
5831;SDS011;50943;51.448;7.646;2024-01-16T05:29:11;27.47;;;11.50;;
5831;SDS011;50943;51.448;7.646;2024-01-16T05:31:39;26.13;;;12.07;;
5831;SDS011;50943;51.448;7.646;2024-01-16T05:34:06;25.13;;;11.63;;
5831;SDS011;50943;51.448;7.646;2024-01-16T05:36:33;22.53;;;11.70;;
5831;SDS011;50943;51.448;7.646;2024-01-16T05:38:59;32.93;;;12.83;;
5831;SDS011;50943;51.448;7.646;2024-01-16T05:41:26;32.33;;;13.70;;
5831;SDS011;50943;51.448;7.646;2024-01-16T05:43:53;30.83;;;12.90;;
5831;SDS011;50943;51.448;7.646;2024-01-16T05:46:19;28.77;;;12.87;;
5831;SDS011;50943;51.448;7.646;2024-01-16T05:48:45;31.90;;;12.57;;
5831;SDS011;50943;51.448;7.646;2024-01-16T05:51:13;25.87;;;12.77;;
5831;SDS011;50943;51.448;7.646;2024-01-16T05:53:40;30.73;;;12.50;;
5831;SDS011;50943;51.448;7.646;2024-01-16T05:56:07;27.13;;;12.70;;
5831;SDS011;50943;51.448;7.646;2024-01-16T05:58:33;24.57;;;11.63;;
5831;SDS011;50943;51.448;7.646;2024-01-16T06:01:03;25.60;;;12.60;;
5831;SDS011;50943;51.448;7.646;2024-01-16T06:03:30;26.93;;;13.70;;
5831;SDS011;50943;51.448;7.646;2024-01-16T06:05:57;22.17;;;11.07;;
5831;SDS011;50943;51.448;7.646;2024-01-16T06:08:25;30.17;;;14.37;;
5831;SDS011;50943;51.448;7.646;2024-01-16T06:10:52;23.87;;;13.10;;
5831;SDS011;50943;51.448;7.646;2024-01-16T06:13:18;24.23;;;12.63;;
5831;SDS011;50943;51.448;7.646;2024-01-16T06:15:45;32.10;;;12.77;;
5831;SDS011;50943;51.448;7.646;2024-01-16T06:18:11;28.80;;;13.47;;
5831;SDS011;50943;51.448;7.646;2024-01-16T06:20:38;25.73;;;12.00;;
5831;SDS011;50943;51.448;7.646;2024-01-16T06:23:05;27.23;;;12.90;;
5831;SDS011;50943;51.448;7.646;2024-01-16T06:25:33;28.67;;;13.70;;
5831;SDS011;50943;51.448;7.646;2024-01-16T06:27:59;22.90;;;11.40;;
5831;SDS011;50943;51.448;7.646;2024-01-16T06:30:26;21.03;;;11.20;;
5831;SDS011;50943;51.448;7.646;2024-01-16T06:32:52;27.57;;;12.03;;
5831;SDS011;50943;51.448;7.646;2024-01-16T06:35:19;26.23;;;12.43;;
5831;SDS011;50943;51.448;7.646;2024-01-16T06:37:45;35.23;;;12.40;;
5831;SDS011;50943;51.448;7.646;2024-01-16T06:40:12;29.10;;;11.87;;
5831;SDS011;50943;51.448;7.646;2024-01-16T06:42:40;23.67;;;12.00;;
5831;SDS011;50943;51.448;7.646;2024-01-16T06:45:06;24.90;;;11.90;;
5831;SDS011;50943;51.448;7.646;2024-01-16T06:47:33;24.67;;;10.83;;
5831;SDS011;50943;51.448;7.646;2024-01-16T06:49:59;24.57;;;11.77;;
5831;SDS011;50943;51.448;7.646;2024-01-16T06:52:26;33.37;;;11.10;;
5831;SDS011;50943;51.448;7.646;2024-01-16T06:54:52;19.17;;;10.17;;
5831;SDS011;50943;51.448;7.646;2024-01-16T06:57:19;24.57;;;12.10;;
5831;SDS011;50943;51.448;7.646;2024-01-16T06:59:47;22.67;;;10.47;;
5831;SDS011;50943;51.448;7.646;2024-01-16T07:02:13;24.57;;;10.60;;
5831;SDS011;50943;51.448;7.646;2024-01-16T07:04:40;25.00;;;10.47;;
5831;SDS011;50943;51.448;7.646;2024-01-16T07:07:06;20.40;;;9.60;;
5831;SDS011;50943;51.448;7.646;2024-01-16T07:09:33;29.50;;;10.50;;
5831;SDS011;50943;51.448;7.646;2024-01-16T07:11:59;20.10;;;9.83;;
5831;SDS011;50943;51.448;7.646;2024-01-16T07:14:26;22.87;;;10.03;;
5831;SDS011;50943;51.448;7.646;2024-01-16T07:16:54;20.30;;;10.17;;
5831;SDS011;50943;51.448;7.646;2024-01-16T07:19:21;19.80;;;9.13;;
5831;SDS011;50943;51.448;7.646;2024-01-16T07:21:47;23.27;;;9.93;;
5831;SDS011;50943;51.448;7.646;2024-01-16T07:24:14;22.27;;;8.60;;
5831;SDS011;50943;51.448;7.646;2024-01-16T07:26:40;18.10;;;9.00;;
5831;SDS011;50943;51.448;7.646;2024-01-16T07:29:07;18.03;;;8.60;;
5831;SDS011;50943;51.448;7.646;2024-01-16T07:31:34;18.93;;;9.20;;
5831;SDS011;50943;51.448;7.646;2024-01-16T07:34:02;18.20;;;8.10;;
5831;SDS011;50943;51.448;7.646;2024-01-16T07:36:29;18.60;;;9.87;;
5831;SDS011;50943;51.448;7.646;2024-01-16T07:38:56;26.93;;;9.90;;
5831;SDS011;50943;51.448;7.646;2024-01-16T07:41:22;19.57;;;9.57;;
5831;SDS011;50943;51.448;7.646;2024-01-16T07:43:49;17.30;;;8.83;;
5831;SDS011;50943;51.448;7.646;2024-01-16T07:46:15;19.20;;;10.27;;
5831;SDS011;50943;51.448;7.646;2024-01-16T07:48:42;22.43;;;10.73;;
5831;SDS011;50943;51.448;7.646;2024-01-16T07:51:10;23.70;;;9.73;;
5831;SDS011;50943;51.448;7.646;2024-01-16T07:53:37;20.47;;;8.93;;
5831;SDS011;50943;51.448;7.646;2024-01-16T07:56:04;26.63;;;10.50;;
5831;SDS011;50943;51.448;7.646;2024-01-16T07:58:30;31.00;;;11.40;;
5831;SDS011;50943;51.448;7.646;2024-01-16T08:00:57;27.90;;;11.20;;
5831;SDS011;50943;51.448;7.646;2024-01-16T08:03:23;23.83;;;11.03;;
5831;SDS011;50943;51.448;7.646;2024-01-16T08:05:50;20.27;;;11.43;;
5831;SDS011;50943;51.448;7.646;2024-01-16T08:08:18;28.77;;;11.63;;
5831;SDS011;50943;51.448;7.646;2024-01-16T08:10:45;30.23;;;12.00;;
5831;SDS011;50943;51.448;7.646;2024-01-16T08:13:11;21.27;;;10.20;;
5831;SDS011;50943;51.448;7.646;2024-01-16T08:15:38;21.60;;;11.50;;
5831;SDS011;50943;51.448;7.646;2024-01-16T08:18:05;29.03;;;10.97;;
5831;SDS011;50943;51.448;7.646;2024-01-16T08:20:31;25.60;;;10.73;;
5831;SDS011;50943;51.448;7.646;2024-01-16T08:22:58;22.40;;;10.10;;
5831;SDS011;50943;51.448;7.646;2024-01-16T08:25:26;19.50;;;9.43;;
5831;SDS011;50943;51.448;7.646;2024-01-16T08:27:52;21.63;;;9.50;;
5831;SDS011;50943;51.448;7.646;2024-01-16T08:30:19;13.77;;;8.50;;
5831;SDS011;50943;51.448;7.646;2024-01-16T08:32:45;18.30;;;8.83;;
5831;SDS011;50943;51.448;7.646;2024-01-16T08:35:12;23.20;;;9.10;;
5831;SDS011;50943;51.448;7.646;2024-01-16T08:37:38;16.20;;;7.47;;
5831;SDS011;50943;51.448;7.646;2024-01-16T08:40:05;23.60;;;9.37;;
5831;SDS011;50943;51.448;7.646;2024-01-16T08:42:34;16.40;;;8.30;;
5831;SDS011;50943;51.448;7.646;2024-01-16T08:45:01;18.67;;;8.40;;
5831;SDS011;50943;51.448;7.646;2024-01-16T08:47:28;18.00;;;8.50;;
5831;SDS011;50943;51.448;7.646;2024-01-16T08:49:54;20.60;;;7.60;;
5831;SDS011;50943;51.448;7.646;2024-01-16T08:52:21;23.87;;;7.63;;
5831;SDS011;50943;51.448;7.646;2024-01-16T08:54:47;13.40;;;6.00;;
5831;SDS011;50943;51.448;7.646;2024-01-16T08:57:14;20.10;;;7.43;;
5831;SDS011;50943;51.448;7.646;2024-01-16T08:59:42;19.70;;;6.10;;
5831;SDS011;50943;51.448;7.646;2024-01-16T09:02:08;9.83;;;5.10;;
5831;SDS011;50943;51.448;7.646;2024-01-16T09:04:35;12.43;;;5.33;;
5831;SDS011;50943;51.448;7.646;2024-01-16T09:07:03;19.27;;;5.67;;
5831;SDS011;50943;51.448;7.646;2024-01-16T09:09:30;16.10;;;6.43;;
5831;SDS011;50943;51.448;7.646;2024-01-16T09:11:56;16.30;;;5.83;;
5831;SDS011;50943;51.448;7.646;2024-01-16T09:14:24;12.17;;;3.83;;
5831;SDS011;50943;51.448;7.646;2024-01-16T09:16:52;13.80;;;4.30;;
5831;SDS011;50943;51.448;7.646;2024-01-16T09:19:19;16.00;;;4.20;;
5831;SDS011;50943;51.448;7.646;2024-01-16T09:21:45;8.37;;;3.70;;
5831;SDS011;50943;51.448;7.646;2024-01-16T09:24:12;11.27;;;3.80;;
5831;SDS011;50943;51.448;7.646;2024-01-16T09:26:38;11.27;;;3.90;;
5831;SDS011;50943;51.448;7.646;2024-01-16T09:29:05;16.67;;;3.80;;
5831;SDS011;50943;51.448;7.646;2024-01-16T09:31:31;15.17;;;3.80;;
5831;SDS011;50943;51.448;7.646;2024-01-16T09:33:59;12.63;;;3.47;;
5831;SDS011;50943;51.448;7.646;2024-01-16T09:36:26;6.07;;;2.97;;
5831;SDS011;50943;51.448;7.646;2024-01-16T09:38:52;15.70;;;3.73;;
5831;SDS011;50943;51.448;7.646;2024-01-16T09:41:19;23.77;;;4.17;;
5831;SDS011;50943;51.448;7.646;2024-01-16T09:43:45;26.80;;;3.70;;
5831;SDS011;50943;51.448;7.646;2024-01-16T09:46:11;15.57;;;4.50;;
5831;SDS011;50943;51.448;7.646;2024-01-16T09:48:38;15.03;;;3.20;;
5831;SDS011;50943;51.448;7.646;2024-01-16T09:51:06;11.47;;;3.20;;
5831;SDS011;50943;51.448;7.646;2024-01-16T09:53:33;9.50;;;2.93;;
5831;SDS011;50943;51.448;7.646;2024-01-16T09:56:01;9.77;;;2.60;;
5831;SDS011;50943;51.448;7.646;2024-01-16T09:58:29;14.03;;;3.13;;
5831;SDS011;50943;51.448;7.646;2024-01-16T10:00:58;19.93;;;2.90;;
5831;SDS011;50943;51.448;7.646;2024-01-16T10:03:25;9.30;;;2.80;;
5831;SDS011;50943;51.448;7.646;2024-01-16T10:05:52;9.60;;;3.07;;
5831;SDS011;50943;51.448;7.646;2024-01-16T10:08:20;4.70;;;2.33;;
5831;SDS011;50943;51.448;7.646;2024-01-16T10:10:47;10.50;;;3.20;;
5831;SDS011;50943;51.448;7.646;2024-01-16T10:13:13;4.53;;;1.70;;
5831;SDS011;50943;51.448;7.646;2024-01-16T10:15:40;4.97;;;2.37;;
5831;SDS011;50943;51.448;7.646;2024-01-16T10:18:08;8.10;;;3.33;;
5831;SDS011;50943;51.448;7.646;2024-01-16T10:20:48;9.17;;;2.87;;
5831;SDS011;50943;51.448;7.646;2024-01-16T10:23:16;10.77;;;2.90;;
5831;SDS011;50943;51.448;7.646;2024-01-16T10:26:05;7.90;;;2.17;;
5831;SDS011;50943;51.448;7.646;2024-01-16T10:28:32;9.80;;;2.50;;
5831;SDS011;50943;51.448;7.646;2024-01-16T10:31:02;10.20;;;3.33;;
5831;SDS011;50943;51.448;7.646;2024-01-16T10:33:29;13.80;;;3.07;;
5831;SDS011;50943;51.448;7.646;2024-01-16T10:36:06;5.50;;;2.70;;
5831;SDS011;50943;51.448;7.646;2024-01-16T10:38:35;8.13;;;2.90;;
5831;SDS011;50943;51.448;7.646;2024-01-16T10:41:09;14.17;;;3.50;;
5831;SDS011;50943;51.448;7.646;2024-01-16T10:43:36;16.07;;;3.13;;
5831;SDS011;50943;51.448;7.646;2024-01-16T10:46:09;7.60;;;2.77;;
5831;SDS011;50943;51.448;7.646;2024-01-16T10:48:38;8.00;;;3.10;;
5831;SDS011;50943;51.448;7.646;2024-01-16T10:51:05;8.90;;;2.53;;
5831;SDS011;50943;51.448;7.646;2024-01-16T10:53:35;9.23;;;2.83;;
5831;SDS011;50943;51.448;7.646;2024-01-16T10:56:01;10.00;;;2.47;;
5831;SDS011;50943;51.448;7.646;2024-01-16T10:58:29;8.70;;;2.73;;
5831;SDS011;50943;51.448;7.646;2024-01-16T11:00:57;10.67;;;3.30;;
5831;SDS011;50943;51.448;7.646;2024-01-16T11:03:24;6.87;;;3.60;;
5831;SDS011;50943;51.448;7.646;2024-01-16T11:05:52;7.23;;;2.93;;
5831;SDS011;50943;51.448;7.646;2024-01-16T11:08:19;6.17;;;2.80;;
5831;SDS011;50943;51.448;7.646;2024-01-16T11:10:48;17.77;;;4.67;;
5831;SDS011;50943;51.448;7.646;2024-01-16T11:13:15;10.80;;;2.87;;
5831;SDS011;50943;51.448;7.646;2024-01-16T11:15:43;17.73;;;3.87;;
5831;SDS011;50943;51.448;7.646;2024-01-16T11:18:09;9.33;;;2.47;;
5831;SDS011;50943;51.448;7.646;2024-01-16T11:20:36;13.67;;;2.90;;
5831;SDS011;50943;51.448;7.646;2024-01-16T11:23:03;12.20;;;2.80;;
5831;SDS011;50943;51.448;7.646;2024-01-16T11:25:30;8.57;;;2.47;;
5831;SDS011;50943;51.448;7.646;2024-01-16T11:28:07;8.13;;;2.93;;
5831;SDS011;50943;51.448;7.646;2024-01-16T11:30:34;9.73;;;2.30;;
5831;SDS011;50943;51.448;7.646;2024-01-16T11:33:00;9.10;;;3.50;;
5831;SDS011;50943;51.448;7.646;2024-01-16T11:35:33;10.63;;;2.40;;
5831;SDS011;50943;51.448;7.646;2024-01-16T11:38:03;11.97;;;3.70;;
5831;SDS011;50943;51.448;7.646;2024-01-16T11:40:34;11.50;;;3.63;;
5831;SDS011;50943;51.448;7.646;2024-01-16T11:46:02;10.10;;;2.97;;
5831;SDS011;50943;51.448;7.646;2024-01-16T11:48:28;7.03;;;2.67;;
5831;SDS011;50943;51.448;7.646;2024-01-16T11:50:55;13.57;;;2.80;;
5831;SDS011;50943;51.448;7.646;2024-01-16T11:53:31;9.40;;;2.80;;
5831;SDS011;50943;51.448;7.646;2024-01-16T11:56:06;9.13;;;2.70;;
5831;SDS011;50943;51.448;7.646;2024-01-16T11:58:45;10.73;;;2.87;;
5831;SDS011;50943;51.448;7.646;2024-01-16T12:01:15;9.23;;;3.10;;
5831;SDS011;50943;51.448;7.646;2024-01-16T12:03:43;16.87;;;3.20;;
5831;SDS011;50943;51.448;7.646;2024-01-16T12:06:09;19.83;;;3.40;;
5831;SDS011;50943;51.448;7.646;2024-01-16T12:08:36;5.70;;;2.63;;
5831;SDS011;50943;51.448;7.646;2024-01-16T12:11:03;10.47;;;2.93;;
5831;SDS011;50943;51.448;7.646;2024-01-16T12:13:30;10.83;;;2.77;;
5831;SDS011;50943;51.448;7.646;2024-01-16T12:16:00;4.87;;;2.20;;
5831;SDS011;50943;51.448;7.646;2024-01-16T12:18:29;6.10;;;2.63;;
5831;SDS011;50943;51.448;7.646;2024-01-16T12:20:56;16.60;;;2.80;;
5831;SDS011;50943;51.448;7.646;2024-01-16T12:23:23;10.70;;;3.27;;
5831;SDS011;50943;51.448;7.646;2024-01-16T12:25:51;9.33;;;3.70;;
5831;SDS011;50943;51.448;7.646;2024-01-16T12:28:19;6.77;;;2.57;;
5831;SDS011;50943;51.448;7.646;2024-01-16T12:30:48;12.43;;;3.50;;
5831;SDS011;50943;51.448;7.646;2024-01-16T12:33:18;14.20;;;2.77;;
5831;SDS011;50943;51.448;7.646;2024-01-16T12:35:48;18.70;;;3.20;;
5831;SDS011;50943;51.448;7.646;2024-01-16T12:38:15;8.37;;;3.50;;
5831;SDS011;50943;51.448;7.646;2024-01-16T12:40:44;9.60;;;3.13;;
5831;SDS011;50943;51.448;7.646;2024-01-16T12:43:12;12.60;;;3.30;;
5831;SDS011;50943;51.448;7.646;2024-01-16T12:45:38;6.97;;;2.90;;
5831;SDS011;50943;51.448;7.646;2024-01-16T12:48:05;8.57;;;3.57;;
5831;SDS011;50943;51.448;7.646;2024-01-16T12:50:34;8.03;;;3.30;;
5831;SDS011;50943;51.448;7.646;2024-01-16T12:53:02;12.73;;;3.00;;
5831;SDS011;50943;51.448;7.646;2024-01-16T12:55:31;10.93;;;3.60;;
5831;SDS011;50943;51.448;7.646;2024-01-16T12:58:16;8.60;;;3.57;;
5831;SDS011;50943;51.448;7.646;2024-01-16T13:00:43;10.60;;;2.93;;
5831;SDS011;50943;51.448;7.646;2024-01-16T13:03:17;8.23;;;2.67;;
5831;SDS011;50943;51.448;7.646;2024-01-16T13:05:45;8.83;;;2.67;;
5831;SDS011;50943;51.448;7.646;2024-01-16T13:08:19;11.33;;;3.60;;
5831;SDS011;50943;51.448;7.646;2024-01-16T13:10:45;7.93;;;2.90;;
5831;SDS011;50943;51.448;7.646;2024-01-16T13:13:13;4.33;;;3.10;;
5831;SDS011;50943;51.448;7.646;2024-01-16T13:15:40;9.10;;;3.10;;
5831;SDS011;50943;51.448;7.646;2024-01-16T13:18:16;10.60;;;3.13;;
5831;SDS011;50943;51.448;7.646;2024-01-16T13:20:45;8.30;;;3.50;;
5831;SDS011;50943;51.448;7.646;2024-01-16T13:23:12;11.57;;;3.33;;
5831;SDS011;50943;51.448;7.646;2024-01-16T13:25:41;6.50;;;2.90;;
5831;SDS011;50943;51.448;7.646;2024-01-16T13:28:08;6.57;;;3.53;;
5831;SDS011;50943;51.448;7.646;2024-01-16T13:30:34;9.40;;;3.77;;
5831;SDS011;50943;51.448;7.646;2024-01-16T13:33:01;11.87;;;3.30;;
5831;SDS011;50943;51.448;7.646;2024-01-16T13:35:29;14.17;;;4.57;;
5831;SDS011;50943;51.448;7.646;2024-01-16T13:37:57;6.70;;;3.03;;
5831;SDS011;50943;51.448;7.646;2024-01-16T13:40:24;8.83;;;2.73;;
5831;SDS011;50943;51.448;7.646;2024-01-16T13:42:51;7.10;;;4.47;;
5831;SDS011;50943;51.448;7.646;2024-01-16T13:45:17;11.57;;;3.10;;
5831;SDS011;50943;51.448;7.646;2024-01-16T13:47:44;10.43;;;4.03;;
5831;SDS011;50943;51.448;7.646;2024-01-16T13:50:10;6.77;;;3.07;;
5831;SDS011;50943;51.448;7.646;2024-01-16T13:52:37;8.50;;;3.43;;
5831;SDS011;50943;51.448;7.646;2024-01-16T13:55:07;10.80;;;4.00;;
5831;SDS011;50943;51.448;7.646;2024-01-16T13:57:34;5.33;;;2.90;;
5831;SDS011;50943;51.448;7.646;2024-01-16T14:00:01;9.00;;;3.50;;
5831;SDS011;50943;51.448;7.646;2024-01-16T14:02:29;9.33;;;3.10;;
5831;SDS011;50943;51.448;7.646;2024-01-16T14:04:55;14.37;;;3.60;;
5831;SDS011;50943;51.448;7.646;2024-01-16T14:07:22;12.83;;;3.43;;
5831;SDS011;50943;51.448;7.646;2024-01-16T14:09:48;9.77;;;2.93;;
5831;SDS011;50943;51.448;7.646;2024-01-16T14:12:15;8.97;;;3.47;;
5831;SDS011;50943;51.448;7.646;2024-01-16T14:14:44;10.20;;;3.60;;
5831;SDS011;50943;51.448;7.646;2024-01-16T14:17:12;8.20;;;3.03;;
5831;SDS011;50943;51.448;7.646;2024-01-16T14:19:39;8.80;;;3.60;;
5831;SDS011;50943;51.448;7.646;2024-01-16T14:22:05;10.23;;;3.63;;
5831;SDS011;50943;51.448;7.646;2024-01-16T14:24:32;10.17;;;3.50;;
5831;SDS011;50943;51.448;7.646;2024-01-16T14:26:59;11.93;;;3.03;;
5831;SDS011;50943;51.448;7.646;2024-01-16T14:29:26;9.13;;;3.50;;
5831;SDS011;50943;51.448;7.646;2024-01-16T14:31:53;8.53;;;3.97;;
5831;SDS011;50943;51.448;7.646;2024-01-16T14:34:21;17.03;;;3.70;;
5831;SDS011;50943;51.448;7.646;2024-01-16T14:36:50;7.20;;;2.93;;
5831;SDS011;50943;51.448;7.646;2024-01-16T14:39:18;9.97;;;3.20;;
5831;SDS011;50943;51.448;7.646;2024-01-16T14:41:49;7.60;;;3.07;;
5831;SDS011;50943;51.448;7.646;2024-01-16T14:44:16;9.50;;;3.33;;
5831;SDS011;50943;51.448;7.646;2024-01-16T14:46:44;9.23;;;3.13;;
5831;SDS011;50943;51.448;7.646;2024-01-16T14:49:10;11.73;;;3.50;;